createdAt,value
2022-12-18T00:01:34.235Z,15.35
2022-12-18T00:04:05.921Z,16.27
2022-12-18T00:06:34.738Z,17.92
2022-12-18T00:09:05.115Z,17.13
2022-12-18T00:11:33.862Z,17.17
2022-12-18T00:14:02.274Z,18.08
2022-12-18T00:16:34.028Z,15.70
2022-12-18T00:19:02.363Z,15.95
2022-12-18T00:21:32.509Z,16.38
2022-12-18T00:24:00.881Z,15.70
2022-12-18T00:26:32.613Z,14.60
2022-12-18T00:29:05.297Z,16.75
2022-12-18T00:31:34.215Z,14.88
2022-12-18T00:34:03.137Z,17.75
2022-12-18T00:36:34.256Z,15.85
2022-12-18T00:39:03.951Z,16.67
2022-12-18T00:41:47.323Z,16.45
2022-12-18T00:44:17.416Z,15.27
2022-12-18T00:46:46.899Z,16.52
2022-12-18T00:49:15.353Z,15.83
2022-12-18T00:51:43.536Z,15.60
2022-12-18T00:54:12.872Z,15.80
2022-12-18T00:56:50.062Z,15.48
2022-12-18T00:59:19.705Z,16.80
2022-12-18T01:01:48.000Z,17.23
2022-12-18T01:04:16.893Z,16.00
2022-12-18T01:06:47.237Z,16.58
2022-12-18T01:09:15.445Z,16.65
2022-12-18T01:11:44.746Z,16.35
2022-12-18T01:16:40.497Z,15.95
2022-12-18T01:19:08.725Z,16.27
2022-12-18T01:21:36.648Z,15.98
2022-12-18T01:24:06.893Z,15.02
2022-12-18T01:26:35.297Z,17.40
2022-12-18T01:29:04.651Z,16.30
2022-12-18T01:31:34.940Z,17.10
2022-12-18T01:34:04.869Z,16.30
2022-12-18T01:36:34.289Z,16.85
2022-12-18T01:39:03.956Z,15.45
2022-12-18T01:42:02.444Z,16.25
2022-12-18T01:45:01.602Z,16.63
2022-12-18T01:50:04.510Z,15.73
2022-12-18T01:52:34.923Z,17.25
2022-12-18T01:55:05.770Z,17.05
2022-12-18T01:57:34.183Z,14.93
2022-12-18T02:00:12.192Z,15.70
2022-12-18T02:02:43.867Z,15.98
2022-12-18T02:05:17.080Z,15.38
2022-12-18T02:07:52.004Z,15.65
2022-12-18T02:10:29.223Z,16.80
2022-12-18T02:13:04.895Z,15.43
2022-12-18T02:15:41.501Z,16.17
2022-12-18T02:18:14.282Z,15.70
2022-12-18T02:20:49.214Z,16.50
2022-12-18T02:23:35.749Z,15.85
2022-12-18T02:26:22.649Z,17.05
2022-12-18T02:28:57.316Z,15.48
2022-12-18T02:31:30.797Z,16.38
2022-12-18T02:34:02.851Z,16.58
2022-12-18T02:36:38.402Z,16.50
2022-12-18T02:39:09.544Z,16.05
2022-12-18T02:41:42.415Z,16.25
2022-12-18T02:44:13.026Z,17.55
2022-12-18T02:46:44.562Z,16.30
2022-12-18T02:49:28.311Z,16.67
2022-12-18T02:52:07.189Z,16.15
2022-12-18T02:54:51.451Z,16.70
2022-12-18T02:57:26.767Z,16.20
2022-12-18T03:00:04.074Z,16.38
2022-12-18T03:02:39.485Z,17.23
2022-12-18T03:05:13.972Z,16.23
2022-12-18T03:07:49.059Z,16.98
2022-12-18T03:10:22.093Z,16.75
2022-12-18T03:13:00.239Z,17.35
2022-12-18T03:15:32.881Z,15.45
2022-12-18T03:18:18.343Z,16.33
2022-12-18T03:20:50.051Z,16.15
2022-12-18T03:23:26.397Z,15.32
2022-12-18T03:26:07.171Z,15.32
2022-12-18T03:28:44.408Z,13.95
2022-12-18T03:31:14.499Z,14.80
2022-12-18T03:33:48.090Z,14.93
2022-12-18T03:36:17.387Z,15.40
2022-12-18T03:38:45.573Z,15.13
2022-12-18T03:41:21.767Z,14.70
2022-12-18T03:44:17.490Z,15.30
2022-12-18T03:46:57.010Z,14.38
2022-12-18T03:49:30.923Z,14.88
2022-12-18T03:52:06.144Z,16.48
2022-12-18T03:54:37.547Z,15.60
2022-12-18T03:57:17.801Z,14.75
2022-12-18T03:59:51.724Z,15.00
2022-12-18T04:02:24.305Z,15.77
2022-12-18T04:04:55.287Z,14.88
2022-12-18T04:07:25.957Z,15.95
2022-12-18T04:09:57.960Z,15.95
2022-12-18T04:12:27.371Z,15.35
2022-12-18T04:17:25.947Z,15.68
2022-12-18T04:19:56.775Z,16.23
2022-12-18T04:22:26.209Z,16.85
2022-12-18T04:24:59.738Z,16.13
2022-12-18T04:27:34.208Z,16.33
2022-12-18T04:30:03.689Z,15.35
2022-12-18T04:32:32.429Z,16.85
2022-12-18T04:35:02.093Z,16.25
2022-12-18T04:37:30.523Z,16.60
2022-12-18T04:39:58.530Z,17.17
2022-12-18T04:42:34.420Z,15.27
2022-12-18T04:45:03.995Z,16.30
2022-12-18T04:47:33.111Z,18.63
2022-12-18T04:50:01.097Z,16.93
2022-12-18T04:52:29.089Z,16.77
2022-12-18T04:54:59.992Z,17.45
2022-12-18T04:57:28.009Z,17.00
2022-12-18T04:59:56.399Z,17.70
2022-12-18T05:02:25.768Z,17.80
2022-12-18T05:04:53.817Z,16.95
2022-12-18T05:07:21.814Z,18.23
2022-12-18T05:09:49.849Z,16.02
2022-12-18T05:12:17.837Z,17.00
2022-12-18T05:14:45.738Z,16.30
2022-12-18T05:17:13.643Z,18.23
2022-12-18T05:19:43.017Z,15.50
2022-12-18T05:24:39.146Z,16.77
2022-12-18T05:27:07.122Z,20.43
2022-12-18T05:29:35.223Z,19.23
2022-12-18T05:32:03.174Z,19.98
2022-12-18T05:34:31.103Z,19.67
2022-12-18T05:37:00.387Z,18.35
2022-12-18T05:41:56.535Z,18.73
2022-12-18T05:44:24.676Z,19.13
2022-12-18T05:46:52.656Z,24.05
2022-12-18T05:49:20.633Z,25.95
2022-12-18T05:51:48.711Z,24.23
2022-12-18T05:54:18.068Z,22.52
2022-12-18T05:59:17.050Z,22.00
2022-12-18T06:01:45.239Z,20.50
2022-12-18T06:04:13.365Z,21.70
2022-12-18T06:06:41.447Z,21.42
2022-12-18T06:09:10.559Z,20.83
2022-12-18T06:11:40.450Z,18.50
2022-12-18T06:14:09.343Z,20.50
2022-12-18T06:16:37.402Z,19.80
2022-12-18T06:19:07.509Z,21.27
2022-12-18T06:21:36.082Z,21.60
2022-12-18T06:24:04.356Z,24.10
2022-12-18T06:26:32.310Z,25.55
2022-12-18T06:29:01.697Z,26.30
2022-12-18T06:31:29.690Z,29.42
2022-12-18T06:33:58.743Z,29.25
2022-12-18T06:36:26.731Z,29.15
2022-12-18T06:38:54.697Z,29.33
2022-12-18T06:41:23.475Z,25.92
2022-12-18T06:43:54.626Z,24.13
2022-12-18T06:46:27.898Z,23.88
2022-12-18T06:48:55.854Z,20.83
2022-12-18T06:51:25.139Z,22.40
2022-12-18T06:56:21.339Z,20.25
2022-12-18T06:58:52.119Z,20.33
2022-12-18T07:01:20.298Z,21.98
2022-12-18T07:03:54.014Z,22.42
2022-12-18T07:06:24.227Z,20.75
2022-12-18T07:08:53.167Z,21.50
2022-12-18T07:11:21.406Z,19.90
2022-12-18T07:13:50.057Z,19.65
2022-12-18T07:16:24.801Z,19.65
2022-12-18T07:18:56.508Z,18.67
2022-12-18T07:21:26.152Z,20.40
2022-12-18T07:23:54.271Z,19.50
2022-12-18T07:26:23.479Z,19.50
2022-12-18T07:28:51.907Z,19.95
2022-12-18T07:31:22.910Z,19.50
2022-12-18T07:33:53.233Z,20.50
2022-12-18T07:36:25.358Z,19.98
2022-12-18T07:38:54.063Z,20.17
2022-12-18T07:41:22.926Z,20.50
2022-12-18T07:43:50.988Z,20.92
2022-12-18T07:46:20.158Z,19.38
2022-12-18T07:48:49.801Z,18.92
2022-12-18T07:51:18.763Z,18.90
2022-12-18T07:53:49.614Z,20.08
2022-12-18T07:56:29.409Z,18.80
2022-12-18T07:58:58.558Z,19.27
2022-12-18T08:01:26.797Z,19.85
2022-12-18T08:03:55.050Z,20.40
2022-12-18T08:06:25.117Z,20.08
2022-12-18T08:08:55.752Z,19.67
2022-12-18T08:11:25.491Z,18.50
2022-12-18T08:13:53.573Z,18.75
2022-12-18T08:16:22.459Z,20.70
2022-12-18T08:18:51.316Z,22.00
2022-12-18T08:21:22.156Z,21.58
2022-12-18T08:23:51.505Z,20.58
2022-12-18T08:26:22.100Z,20.38
2022-12-18T08:28:50.896Z,22.67
2022-12-18T08:31:19.387Z,20.90
2022-12-18T08:33:47.629Z,19.70
2022-12-18T08:36:15.594Z,22.50
2022-12-18T08:38:43.584Z,20.65
2022-12-18T08:41:13.896Z,20.13
2022-12-18T08:44:00.885Z,19.85
2022-12-18T08:46:35.254Z,19.48
2022-12-18T08:49:03.381Z,19.35
2022-12-18T08:51:32.053Z,19.27
2022-12-18T08:54:00.069Z,18.95
2022-12-18T08:56:28.062Z,22.45
2022-12-18T08:58:57.681Z,20.90
2022-12-18T09:01:26.265Z,18.65
2022-12-18T09:03:54.333Z,19.67
2022-12-18T09:06:23.951Z,19.60
2022-12-18T09:08:52.175Z,20.83
2022-12-18T09:11:22.910Z,20.60
2022-12-18T09:13:51.678Z,19.75
2022-12-18T09:16:24.970Z,19.65
2022-12-18T09:19:00.215Z,20.25
2022-12-18T09:21:30.157Z,20.85
2022-12-18T09:23:58.446Z,19.40
2022-12-18T09:26:28.383Z,21.58
2022-12-18T09:28:56.912Z,20.10
2022-12-18T09:31:26.760Z,21.48
2022-12-18T09:33:56.691Z,21.33
2022-12-18T09:36:24.707Z,21.75
2022-12-18T09:38:52.630Z,19.92
2022-12-18T09:41:39.350Z,20.88
2022-12-18T09:44:16.072Z,23.27
2022-12-18T09:46:49.758Z,19.15
2022-12-18T09:49:22.206Z,20.00
2022-12-18T09:51:54.770Z,20.70
2022-12-18T09:54:27.861Z,20.70
2022-12-18T09:56:56.339Z,22.13
2022-12-18T09:59:27.688Z,22.93
2022-12-18T10:01:58.412Z,21.52
2022-12-18T10:04:27.476Z,21.75
2022-12-18T10:07:09.005Z,23.65
2022-12-18T10:09:45.632Z,21.60
2022-12-18T10:12:23.561Z,22.35
2022-12-18T10:15:04.578Z,23.08
2022-12-18T10:17:44.544Z,22.98
2022-12-18T10:20:18.187Z,22.75
2022-12-18T10:22:55.555Z,25.08
2022-12-18T10:25:26.413Z,22.77
2022-12-18T10:27:57.936Z,21.25
2022-12-18T10:30:27.531Z,23.77
2022-12-18T10:33:02.427Z,22.52
2022-12-18T10:35:30.706Z,23.63
2022-12-18T10:38:07.532Z,24.08
2022-12-18T10:40:50.273Z,24.33
2022-12-18T10:43:23.883Z,22.13
2022-12-18T10:46:04.558Z,24.45
2022-12-18T10:48:35.343Z,22.75
2022-12-18T10:51:13.103Z,22.50
2022-12-18T10:53:44.100Z,22.60
2022-12-18T10:56:12.784Z,23.52
2022-12-18T10:58:41.804Z,21.17
2022-12-18T11:01:12.639Z,23.48
2022-12-18T11:03:44.270Z,20.52
2022-12-18T11:06:15.143Z,21.80
2022-12-18T11:08:45.015Z,22.27
2022-12-18T11:11:23.850Z,22.75
2022-12-18T11:14:01.005Z,21.75
2022-12-18T11:16:31.887Z,22.45
2022-12-18T11:19:17.322Z,22.73
2022-12-18T11:21:45.444Z,21.92
2022-12-18T11:24:22.901Z,22.15
2022-12-18T11:26:54.978Z,20.83
2022-12-18T11:29:34.342Z,21.05
2022-12-18T11:32:26.765Z,21.60
2022-12-18T11:35:04.270Z,22.85
2022-12-18T11:37:34.983Z,24.55
2022-12-18T11:40:09.243Z,21.52
2022-12-18T11:42:43.642Z,21.63
2022-12-18T11:45:26.810Z,22.90
2022-12-18T11:48:01.435Z,23.58
2022-12-18T11:50:40.378Z,22.35
2022-12-18T11:53:13.437Z,23.48
2022-12-18T11:55:48.660Z,22.83
2022-12-18T11:58:31.719Z,23.05
2022-12-18T12:01:15.450Z,21.75
2022-12-18T12:04:01.316Z,23.10
2022-12-18T12:06:38.575Z,20.77
2022-12-18T12:09:15.741Z,22.63
2022-12-18T12:11:54.096Z,22.38
2022-12-18T12:14:45.534Z,23.95
2022-12-18T12:17:20.163Z,23.70
2022-12-18T12:19:55.348Z,23.33
2022-12-18T12:22:32.976Z,25.23
2022-12-18T12:25:19.052Z,24.75
2022-12-18T12:27:58.170Z,25.15
2022-12-18T12:30:34.940Z,25.50
2022-12-18T12:33:18.687Z,25.23
2022-12-18T12:35:54.950Z,22.30
2022-12-18T12:38:29.401Z,22.33
2022-12-18T12:41:04.011Z,24.42
2022-12-18T12:43:47.974Z,24.90
2022-12-18T12:46:20.037Z,24.13
2022-12-18T12:48:50.479Z,23.42
2022-12-18T12:51:23.320Z,26.83
2022-12-18T12:53:55.445Z,26.65
2022-12-18T12:56:24.423Z,27.17
2022-12-18T12:59:01.596Z,22.08
2022-12-18T13:01:38.120Z,24.88
2022-12-18T13:04:20.027Z,22.25
2022-12-18T13:06:55.665Z,23.30
2022-12-18T13:09:25.082Z,22.90
2022-12-18T13:12:10.647Z,23.63
2022-12-18T13:14:41.004Z,23.67
2022-12-18T13:17:32.157Z,25.40
2022-12-18T13:20:13.294Z,25.33
2022-12-18T13:22:47.039Z,25.00
2022-12-18T13:25:37.815Z,24.85
2022-12-18T13:28:12.602Z,23.77
2022-12-18T13:30:49.426Z,22.65
2022-12-18T13:34:02.195Z,23.92
2022-12-18T13:36:34.119Z,23.25
2022-12-18T13:39:32.756Z,24.52
2022-12-18T13:42:57.418Z,24.45
2022-12-18T13:45:46.885Z,25.65
2022-12-18T13:48:26.172Z,24.20
2022-12-18T13:51:01.061Z,25.40
2022-12-18T13:53:32.593Z,25.92
2022-12-18T13:56:01.214Z,25.17
2022-12-18T13:58:29.352Z,24.33
2022-12-18T14:01:00.315Z,23.77
2022-12-18T14:03:30.257Z,25.30
2022-12-18T14:06:03.339Z,25.25
2022-12-18T14:08:37.849Z,24.35
2022-12-18T14:11:08.257Z,23.80
2022-12-18T14:13:41.757Z,25.92
2022-12-18T14:16:16.710Z,24.50
2022-12-18T14:18:48.708Z,25.27
2022-12-18T14:21:22.922Z,26.15
2022-12-18T14:23:51.306Z,26.17
2022-12-18T14:26:29.825Z,26.67
2022-12-18T14:28:58.530Z,27.50
2022-12-18T14:31:30.377Z,26.95
2022-12-18T14:33:58.745Z,28.65
2022-12-18T14:36:28.704Z,27.40
2022-12-18T14:38:57.540Z,25.30
2022-12-18T14:41:26.811Z,24.63
2022-12-18T14:46:36.596Z,25.25
2022-12-18T14:49:06.869Z,25.63
2022-12-18T14:51:36.190Z,26.52
2022-12-18T14:54:08.927Z,25.63
2022-12-18T14:56:45.341Z,26.40
2022-12-18T14:59:23.759Z,26.23
2022-12-18T15:02:01.490Z,26.00
2022-12-18T15:04:32.988Z,27.17
2022-12-18T15:07:12.254Z,26.58
2022-12-18T15:12:26.701Z,25.58
2022-12-18T15:14:54.888Z,26.25
2022-12-18T15:17:26.902Z,25.48
2022-12-18T15:20:00.936Z,26.08
2022-12-18T15:22:31.357Z,26.25
2022-12-18T15:25:00.644Z,27.92
2022-12-18T15:30:20.850Z,27.42
2022-12-18T15:32:51.058Z,27.38
2022-12-18T15:35:21.477Z,27.83
2022-12-18T15:37:49.940Z,25.98
2022-12-18T15:40:19.568Z,26.33
2022-12-18T15:43:06.802Z,26.48
2022-12-18T15:45:35.258Z,27.08
2022-12-18T15:48:20.716Z,29.67
2022-12-18T15:50:48.814Z,32.05
2022-12-18T15:53:16.837Z,31.77
2022-12-18T15:56:04.506Z,32.95
2022-12-18T15:58:33.810Z,33.67
2022-12-18T16:01:02.675Z,33.00
2022-12-18T16:03:32.690Z,31.38
2022-12-18T16:06:03.001Z,29.92
2022-12-18T16:08:32.251Z,29.38
2022-12-18T16:11:00.591Z,29.83
2022-12-18T16:13:28.545Z,28.37
2022-12-18T16:15:56.598Z,29.98
2022-12-18T16:18:24.826Z,28.30
2022-12-18T16:20:54.560Z,27.33
2022-12-18T16:23:22.487Z,29.13
2022-12-18T16:25:50.353Z,29.33
2022-12-18T16:28:18.302Z,29.60
2022-12-18T16:30:46.240Z,32.38
2022-12-18T16:33:14.153Z,30.73
2022-12-18T16:35:42.519Z,30.98
2022-12-18T16:38:12.201Z,31.52
2022-12-18T16:43:30.043Z,28.75
2022-12-18T16:46:00.673Z,29.58
2022-12-18T16:48:28.623Z,29.08
2022-12-18T16:51:03.604Z,30.05
2022-12-18T16:53:34.391Z,29.23
2022-12-18T16:56:03.139Z,28.50
2022-12-18T16:58:32.463Z,29.52
2022-12-18T17:01:00.471Z,29.77
2022-12-18T17:03:28.475Z,29.88
2022-12-18T17:05:56.455Z,28.05
2022-12-18T17:08:24.395Z,28.85
2022-12-18T17:10:53.667Z,30.13
2022-12-18T17:15:54.198Z,30.70
2022-12-18T17:18:22.638Z,31.20
2022-12-18T17:20:50.645Z,30.20
2022-12-18T17:23:18.581Z,32.38
2022-12-18T17:25:46.590Z,33.08
2022-12-18T17:28:15.919Z,34.17
2022-12-18T17:33:11.722Z,30.27
2022-12-18T17:35:39.911Z,29.80
2022-12-18T17:38:09.130Z,31.55
2022-12-18T17:40:41.802Z,29.95
2022-12-18T17:43:13.051Z,33.58
2022-12-18T17:45:42.558Z,33.38
2022-12-18T17:48:10.967Z,32.20
2022-12-18T17:50:39.394Z,34.70
2022-12-18T17:53:07.356Z,30.80
2022-12-18T17:55:35.299Z,30.95
2022-12-18T17:58:03.418Z,31.67
2022-12-18T18:00:31.657Z,30.77
2022-12-18T18:03:01.475Z,29.98
2022-12-18T18:05:29.510Z,28.92
2022-12-18T18:07:57.465Z,30.67
2022-12-18T18:10:25.384Z,31.20
2022-12-18T18:13:10.785Z,30.70
2022-12-18T18:15:40.779Z,33.15
2022-12-18T18:18:10.661Z,32.78
2022-12-18T18:20:41.048Z,31.73
2022-12-18T18:23:10.390Z,29.65
2022-12-18T18:25:38.467Z,31.33
2022-12-18T18:28:06.586Z,28.05
2022-12-18T18:30:34.656Z,28.20
2022-12-18T18:33:04.649Z,29.08
2022-12-18T18:35:53.780Z,27.70
2022-12-18T18:38:22.476Z,28.88
2022-12-18T18:40:50.445Z,29.83
2022-12-18T18:43:19.583Z,31.80
2022-12-18T18:45:50.443Z,28.80
2022-12-18T18:48:18.836Z,31.65
2022-12-18T18:50:57.549Z,32.47
2022-12-18T18:53:25.513Z,31.42
2022-12-18T18:56:26.158Z,31.48
2022-12-18T18:58:41.955Z,30.77
2022-12-18T19:01:13.087Z,31.80
2022-12-18T19:03:41.473Z,31.17
2022-12-18T19:06:15.200Z,30.63
2022-12-18T19:08:44.289Z,30.50
2022-12-18T19:11:26.681Z,31.02
2022-12-18T19:13:56.363Z,30.88
2022-12-18T19:16:27.793Z,31.02
2022-12-18T19:19:01.407Z,29.65
2022-12-18T19:21:34.273Z,30.08
2022-12-18T19:24:03.498Z,31.77
2022-12-18T19:26:31.740Z,31.77
2022-12-18T19:29:02.545Z,31.37
2022-12-18T19:31:35.228Z,31.02
2022-12-18T19:34:05.121Z,31.80
2022-12-18T19:36:36.144Z,31.67
2022-12-18T19:39:10.288Z,31.55
2022-12-18T19:41:38.419Z,32.53
2022-12-18T19:44:08.246Z,37.35
2022-12-18T19:46:41.660Z,36.33
2022-12-18T19:49:10.375Z,38.42
2022-12-18T19:51:42.543Z,38.70
2022-12-18T19:54:16.184Z,43.30
2022-12-18T19:56:45.063Z,44.05
2022-12-18T19:59:13.140Z,44.25
2022-12-18T20:01:41.383Z,42.47
2022-12-18T20:04:09.574Z,41.00
2022-12-18T20:06:49.373Z,40.38
2022-12-18T20:09:18.173Z,41.17
2022-12-18T20:11:47.204Z,36.65
2022-12-18T20:14:19.688Z,36.40
2022-12-18T20:16:51.386Z,37.42
2022-12-18T20:19:19.761Z,35.25
2022-12-18T20:21:50.016Z,35.53
2022-12-18T20:24:18.013Z,39.05
2022-12-18T20:26:46.215Z,36.70
2022-12-18T20:29:14.100Z,37.78
2022-12-18T20:31:42.290Z,37.38
2022-12-18T20:34:10.388Z,35.85
2022-12-18T20:36:38.834Z,35.93
2022-12-18T20:39:10.983Z,35.42
2022-12-18T20:41:40.331Z,36.58
2022-12-18T20:44:21.934Z,37.00
2022-12-18T20:46:53.752Z,34.38
2022-12-18T20:49:22.174Z,38.33
2022-12-18T20:51:53.527Z,35.75
2022-12-18T20:54:24.169Z,35.97
2022-12-18T20:56:52.246Z,34.70
2022-12-18T20:59:20.341Z,33.67
2022-12-18T21:01:49.503Z,34.58
2022-12-18T21:06:51.458Z,35.25
2022-12-18T21:09:22.621Z,36.97
2022-12-18T21:12:08.935Z,36.82
2022-12-18T21:14:40.370Z,36.08
2022-12-18T21:17:08.451Z,36.58
2022-12-18T21:19:36.835Z,35.70
2022-12-18T21:22:05.585Z,37.85
2022-12-18T21:24:35.098Z,35.45
2022-12-18T21:29:31.774Z,33.85
2022-12-18T21:32:00.729Z,32.95
2022-12-18T21:34:30.967Z,31.83
2022-12-18T21:37:01.254Z,32.53
2022-12-18T21:39:30.675Z,31.75
2022-12-18T21:44:48.046Z,31.08
2022-12-18T21:47:23.036Z,32.45
2022-12-18T21:49:53.103Z,35.28
2022-12-18T21:52:27.259Z,34.13
2022-12-18T21:55:06.568Z,32.42
2022-12-18T21:57:39.225Z,34.25
2022-12-18T22:00:08.862Z,31.15
2022-12-18T22:02:43.044Z,33.55
2022-12-18T22:05:11.217Z,32.83
2022-12-18T22:07:39.865Z,34.20
2022-12-18T22:10:09.118Z,33.05
2022-12-18T22:12:44.172Z,33.00
2022-12-18T22:15:21.320Z,35.70
2022-12-18T22:17:50.214Z,32.58
2022-12-18T22:20:18.229Z,34.13
2022-12-18T22:22:48.227Z,34.38
2022-12-18T22:25:16.251Z,32.72
2022-12-18T22:28:06.035Z,32.92
2022-12-18T22:30:33.211Z,30.90
2022-12-18T22:33:01.766Z,35.25
2022-12-18T22:35:29.744Z,34.13
2022-12-18T22:37:59.387Z,34.13
2022-12-18T22:40:27.871Z,34.53
2022-12-18T22:42:57.760Z,35.08
2022-12-18T22:45:26.599Z,35.10
2022-12-18T22:47:54.798Z,36.53
2022-12-18T22:50:22.887Z,36.42
2022-12-18T22:52:50.872Z,37.93
2022-12-18T22:55:18.863Z,33.78
2022-12-18T22:57:49.033Z,35.70
2022-12-18T23:00:23.907Z,36.08
2022-12-18T23:02:59.488Z,34.20
2022-12-18T23:05:30.004Z,36.05
2022-12-18T23:07:58.054Z,34.03
2022-12-18T23:10:26.273Z,38.17
2022-12-18T23:12:54.309Z,35.80
2022-12-18T23:15:28.175Z,34.63
2022-12-18T23:17:58.709Z,36.17
2022-12-18T23:20:27.126Z,36.60
2022-12-18T23:22:55.160Z,38.10
2022-12-18T23:25:23.109Z,36.15
2022-12-18T23:27:51.136Z,37.00
2022-12-18T23:30:19.275Z,34.90
2022-12-18T23:32:48.639Z,36.72
2022-12-18T23:38:00.919Z,38.22
2022-12-18T23:40:30.428Z,40.15
2022-12-18T23:45:26.136Z,36.03
2022-12-18T23:47:55.422Z,39.47
2022-12-18T23:53:04.997Z,38.72
2022-12-18T23:55:38.517Z,36.63
2022-12-18T23:58:06.620Z,35.92
